createdAt,value
2023-03-04T00:02:13.449Z,102150.91
2023-03-04T00:09:40.584Z,102155.13
2023-03-04T00:12:06.100Z,102157.81
2023-03-04T00:14:31.577Z,102154.28
2023-03-04T00:16:57.131Z,102153.47
2023-03-04T00:19:22.680Z,102158.03
2023-03-04T00:21:48.193Z,102164.31
2023-03-04T00:24:13.694Z,102159.16
2023-03-04T00:26:39.425Z,102161.63
2023-03-04T00:34:06.729Z,102160.19
2023-03-04T00:36:32.223Z,102164.50
2023-03-04T00:38:57.731Z,102164.72
2023-03-04T00:41:23.269Z,102162.03
2023-03-04T00:43:48.806Z,102173.88
2023-03-04T00:46:14.441Z,102170.25
2023-03-04T00:48:40.004Z,102170.91
2023-03-04T00:51:05.540Z,102171.28
2023-03-04T00:58:32.773Z,102183.59
2023-03-04T01:00:58.328Z,102168.53
2023-03-04T01:03:23.887Z,102173.84
2023-03-04T01:05:49.475Z,102180.22
2023-03-04T01:08:14.974Z,102178.47
2023-03-04T01:10:40.513Z,102175.91
2023-03-04T01:13:06.016Z,102175.00
2023-03-04T01:15:31.570Z,102181.16
2023-03-04T01:25:38.864Z,102173.31
2023-03-04T01:28:04.369Z,102176.03
2023-03-04T01:30:29.980Z,102174.50
2023-03-04T01:32:55.480Z,102179.00
2023-03-04T01:35:21.051Z,102169.00
2023-03-04T01:37:46.611Z,102159.31
2023-03-04T01:40:12.285Z,102171.91
2023-03-04T01:45:28.297Z,102158.56
2023-03-04T01:47:53.782Z,102162.19
2023-03-04T01:50:19.251Z,102156.94
2023-03-04T01:52:44.732Z,102156.13
2023-03-04T01:55:10.275Z,102158.94
2023-03-04T01:57:35.811Z,102147.41
2023-03-04T02:00:01.340Z,102150.06
2023-03-04T02:07:28.752Z,102150.84
2023-03-04T02:09:54.252Z,102140.13
2023-03-04T02:12:19.965Z,102144.72
2023-03-04T02:14:45.517Z,102145.63
2023-03-04T02:17:11.039Z,102142.09
2023-03-04T02:19:36.532Z,102149.41
2023-03-04T02:22:02.136Z,102140.44
2023-03-04T02:29:29.329Z,102154.72
2023-03-04T02:31:54.929Z,102141.41
2023-03-04T02:34:20.487Z,102141.53
2023-03-04T02:36:46.089Z,102144.16
2023-03-04T02:39:11.618Z,102140.63
2023-03-04T02:41:37.398Z,102146.16
2023-03-04T02:44:02.926Z,102140.94
2023-03-04T02:49:05.967Z,102140.84
2023-03-04T02:51:31.492Z,102131.88
2023-03-04T02:53:56.984Z,102134.53
2023-03-04T02:56:22.521Z,102130.22
2023-03-04T02:58:48.026Z,102121.25
2023-03-04T03:01:13.510Z,102123.88
2023-03-04T03:03:39.070Z,102121.31
2023-03-04T03:06:04.829Z,102130.44
2023-03-04T03:13:31.979Z,102114.03
2023-03-04T03:15:57.601Z,102117.72
2023-03-04T03:18:23.147Z,102122.09
2023-03-04T03:20:48.665Z,102115.09
2023-03-04T03:23:14.204Z,102112.47
2023-03-04T03:25:39.712Z,102111.50
2023-03-04T03:28:05.233Z,102111.63
2023-03-04T03:30:31.045Z,102110.66
2023-03-04T03:37:58.085Z,102112.47
2023-03-04T03:40:23.641Z,102118.72
2023-03-04T03:42:49.224Z,102107.44
2023-03-04T03:45:14.751Z,102111.06
2023-03-04T03:47:40.247Z,102118.94
2023-03-04T03:50:05.743Z,102117.25
2023-03-04T03:52:31.272Z,102123.53
2023-03-04T03:54:56.753Z,102124.41
2023-03-04T04:02:24.328Z,102128.91
2023-03-04T04:04:49.937Z,102134.13
2023-03-04T04:07:15.426Z,102129.75
2023-03-04T04:09:40.958Z,102143.34
2023-03-04T04:12:06.491Z,102134.59
2023-03-04T04:14:31.978Z,102140.78
2023-03-04T04:16:57.541Z,102132.84
2023-03-04T04:19:23.295Z,102135.50
2023-03-04T04:26:45.812Z,102138.16
2023-03-04T04:29:11.380Z,102140.78
2023-03-04T04:31:36.875Z,102141.78
2023-03-04T04:34:02.409Z,102138.25
2023-03-04T04:36:27.905Z,102137.31
2023-03-04T04:38:53.391Z,102140.06
2023-03-04T04:41:18.909Z,102138.47
2023-03-04T04:43:44.453Z,102140.97
2023-03-04T04:53:32.171Z,102141.72
2023-03-04T04:55:57.719Z,102145.34
2023-03-04T04:58:23.266Z,102157.00
2023-03-04T05:00:48.850Z,102157.03
2023-03-04T05:03:15.110Z,102160.59
2023-03-04T05:05:41.866Z,102163.44
2023-03-04T05:08:07.407Z,102171.59
2023-03-04T05:10:32.910Z,102161.78
2023-03-04T05:20:25.363Z,102166.34
2023-03-04T05:22:50.847Z,102168.19
2023-03-04T05:25:16.360Z,102166.25
2023-03-04T05:27:41.911Z,102177.13
2023-03-04T05:30:07.410Z,102171.84
2023-03-04T05:32:32.946Z,102184.44
2023-03-04T05:34:58.563Z,102175.50
2023-03-04T05:37:24.088Z,102183.41
2023-03-04T05:46:51.687Z,102178.88
2023-03-04T05:49:17.275Z,102186.19
2023-03-04T05:51:42.771Z,102183.44
2023-03-04T05:54:08.343Z,102176.47
2023-03-04T05:56:33.874Z,102190.78
2023-03-04T05:58:59.423Z,102181.78
2023-03-04T06:01:25.024Z,102186.41
2023-03-04T06:03:50.876Z,102188.09
2023-03-04T06:11:17.732Z,102183.63
2023-03-04T06:13:43.242Z,102192.41
2023-03-04T06:16:08.817Z,102202.31
2023-03-04T06:18:34.366Z,102195.94
2023-03-04T06:20:59.884Z,102191.44
2023-03-04T06:23:25.406Z,102198.53
2023-03-04T06:25:50.915Z,102202.00
2023-03-04T06:35:43.967Z,102208.88
2023-03-04T06:38:09.523Z,102210.72
2023-03-04T06:40:35.057Z,102202.00
2023-03-04T06:43:00.576Z,102215.13
2023-03-04T06:45:26.073Z,102220.31
2023-03-04T06:47:51.641Z,102220.13
2023-03-04T06:50:17.167Z,102212.91
2023-03-04T06:52:42.656Z,102221.66
2023-03-04T07:02:11.760Z,102225.44
2023-03-04T07:04:37.256Z,102225.41
2023-03-04T07:07:02.732Z,102231.22
2023-03-04T07:09:28.265Z,102223.13
2023-03-04T07:11:53.791Z,102224.66
2023-03-04T07:14:19.340Z,102224.94
2023-03-04T07:16:44.906Z,102240.66
2023-03-04T07:19:10.568Z,102233.97
2023-03-04T07:26:37.994Z,102231.56
2023-03-04T07:29:03.690Z,102233.53
2023-03-04T07:31:29.284Z,102226.19
2023-03-04T07:33:54.830Z,102226.31
2023-03-04T07:36:20.328Z,102243.81
2023-03-04T07:38:45.822Z,102237.38
2023-03-04T07:41:11.329Z,102240.78
2023-03-04T07:48:05.046Z,102234.16
2023-03-04T07:50:30.592Z,102229.59
2023-03-04T07:52:56.097Z,102240.75
2023-03-04T07:55:21.641Z,102244.06
2023-03-04T07:57:47.178Z,102245.44
2023-03-04T08:00:12.670Z,102246.56
2023-03-04T08:02:38.251Z,102239.38
2023-03-04T08:05:03.978Z,102242.91
2023-03-04T08:12:31.112Z,102265.22
2023-03-04T08:14:56.669Z,102263.91
2023-03-04T08:17:22.200Z,102269.09
2023-03-04T08:19:47.717Z,102274.47
2023-03-04T08:22:13.226Z,102273.09
2023-03-04T08:24:38.719Z,102280.13
2023-03-04T08:27:04.302Z,102277.75
2023-03-04T08:29:30.079Z,102277.41
2023-03-04T08:36:57.232Z,102277.84
2023-03-04T08:39:22.785Z,102274.88
2023-03-04T08:41:48.337Z,102279.03
2023-03-04T08:44:13.891Z,102281.56
2023-03-04T08:46:39.437Z,102284.81
2023-03-04T08:49:04.982Z,102285.25
2023-03-04T08:51:30.493Z,102286.28
2023-03-04T08:57:09.021Z,102285.13
2023-03-04T08:59:36.570Z,102287.88
2023-03-04T09:02:03.618Z,102279.16
2023-03-04T09:04:29.107Z,102288.19
2023-03-04T09:06:54.661Z,102287.69
2023-03-04T09:09:20.184Z,102287.63
2023-03-04T09:11:45.716Z,102289.78
2023-03-04T09:14:11.347Z,102292.81
2023-03-04T09:21:38.333Z,102305.50
2023-03-04T09:24:03.884Z,102300.03
2023-03-04T09:26:29.365Z,102305.16
2023-03-04T09:28:54.887Z,102313.81
2023-03-04T09:31:20.443Z,102309.88
2023-03-04T09:33:46.064Z,102312.59
2023-03-04T09:36:11.611Z,102307.13
2023-03-04T09:46:18.910Z,102304.25
2023-03-04T09:48:44.428Z,102310.28
2023-03-04T09:51:09.966Z,102300.53
2023-03-04T09:53:35.501Z,102312.91
2023-03-04T09:56:01.050Z,102315.84
2023-03-04T09:58:26.585Z,102316.25
2023-03-04T10:00:52.163Z,102310.28
2023-03-04T10:06:00.244Z,102310.22
2023-03-04T10:08:25.733Z,102308.41
2023-03-04T10:10:51.366Z,102308.47
2023-03-04T10:13:16.941Z,102309.47
2023-03-04T10:15:42.435Z,102311.88
2023-03-04T10:18:07.957Z,102313.47
2023-03-04T10:20:33.499Z,102313.53
2023-03-04T10:22:59.324Z,102303.50
2023-03-04T10:30:26.340Z,102307.03
2023-03-04T10:32:51.943Z,102297.56
2023-03-04T10:35:17.972Z,102305.66
2023-03-04T10:37:44.984Z,102303.94
2023-03-04T10:40:10.477Z,102290.38
2023-03-04T10:42:36.083Z,102284.75
2023-03-04T10:45:01.667Z,102285.00
2023-03-04T10:50:04.581Z,102286.22
2023-03-04T10:52:30.079Z,102279.81
2023-03-04T10:54:55.625Z,102274.38
2023-03-04T10:57:21.156Z,102279.69
2023-03-04T10:59:46.654Z,102270.69
2023-03-04T11:02:12.188Z,102270.34
2023-03-04T11:04:37.706Z,102266.94
2023-03-04T11:09:46.003Z,102269.91
2023-03-04T11:12:11.524Z,102272.06
2023-03-04T11:14:37.019Z,102267.25
2023-03-04T11:17:02.552Z,102263.03
2023-03-04T11:19:28.049Z,102260.03
2023-03-04T11:21:53.611Z,102257.25
2023-03-04T11:24:29.277Z,102266.13
2023-03-04T11:34:26.593Z,102253.25
2023-03-04T11:36:52.092Z,102244.44
2023-03-04T11:39:17.609Z,102240.63
2023-03-04T11:41:43.122Z,102239.94
2023-03-04T11:44:08.631Z,102235.91
2023-03-04T11:46:34.168Z,102234.22
2023-03-04T11:48:59.698Z,102233.09
2023-03-04T11:54:36.900Z,102220.78
2023-03-04T11:57:02.406Z,102225.03
2023-03-04T11:59:27.889Z,102219.47
2023-03-04T12:01:53.459Z,102211.34
2023-03-04T12:04:19.587Z,102217.63
2023-03-04T12:06:45.243Z,102216.50
2023-03-04T12:09:10.847Z,102213.97
2023-03-04T12:19:17.506Z,102217.06
2023-03-04T12:21:43.053Z,102209.97
2023-03-04T12:24:08.608Z,102202.44
2023-03-04T12:26:34.140Z,102206.91
2023-03-04T12:28:59.641Z,102201.00
2023-03-04T12:31:25.248Z,102204.91
2023-03-04T12:33:50.761Z,102204.97
2023-03-04T12:36:17.017Z,102199.59
2023-03-04T12:43:39.947Z,102184.84
2023-03-04T12:46:05.498Z,102187.06
2023-03-04T12:48:31.007Z,102195.88
2023-03-04T12:50:56.498Z,102191.31
2023-03-04T12:53:22.039Z,102192.81
2023-03-04T12:55:47.559Z,102181.84
2023-03-04T12:58:13.054Z,102175.72
2023-03-04T13:03:15.757Z,102166.91
2023-03-04T13:05:41.375Z,102161.13
2023-03-04T13:08:06.915Z,102161.03
2023-03-04T13:10:32.452Z,102161.84
2023-03-04T13:12:58.193Z,102162.84
2023-03-04T13:15:23.749Z,102155.38
2023-03-04T13:17:49.260Z,102148.84
2023-03-04T13:23:01.192Z,102145.03
2023-03-04T13:25:26.676Z,102143.88
2023-03-04T13:27:52.567Z,102139.97
2023-03-04T13:30:18.213Z,102141.03
2023-03-04T13:32:44.358Z,102132.44
2023-03-04T13:35:09.854Z,102131.59
2023-03-04T13:37:35.383Z,102134.38
2023-03-04T13:42:37.812Z,102127.56
2023-03-04T13:45:03.356Z,102114.72
2023-03-04T13:47:28.896Z,102121.69
2023-03-04T13:49:54.453Z,102115.50
2023-03-04T13:52:19.954Z,102115.03
2023-03-04T13:54:45.463Z,102113.22
2023-03-04T13:57:10.986Z,102120.25
2023-03-04T13:59:36.755Z,102117.53
2023-03-04T14:07:03.899Z,102115.50
2023-03-04T14:09:29.487Z,102120.47
2023-03-04T14:11:55.040Z,102114.56
2023-03-04T14:14:20.626Z,102102.91
2023-03-04T14:16:46.213Z,102108.91
2023-03-04T14:19:11.750Z,102116.31
2023-03-04T14:21:37.241Z,102107.25
2023-03-04T14:24:03.079Z,102099.09
2023-03-04T14:31:30.106Z,102099.34
2023-03-04T14:33:55.775Z,102096.34
2023-03-04T14:36:21.273Z,102089.72
2023-03-04T14:38:48.188Z,102092.41
2023-03-04T14:41:13.776Z,102081.84
2023-03-04T14:43:39.259Z,102079.28
2023-03-04T14:46:04.849Z,102075.59
2023-03-04T14:48:30.435Z,102067.47
2023-03-04T14:55:57.683Z,102058.81
2023-03-04T14:58:23.203Z,102050.88
2023-03-04T15:00:48.801Z,102052.06
2023-03-04T15:03:14.366Z,102056.25
2023-03-04T15:05:39.899Z,102054.66
2023-03-04T15:08:05.419Z,102051.72
2023-03-04T15:10:30.985Z,102049.81
2023-03-04T15:12:56.498Z,102055.59
2023-03-04T15:20:23.782Z,102045.94
2023-03-04T15:22:49.293Z,102041.25
2023-03-04T15:25:14.829Z,102045.50
2023-03-04T15:27:40.371Z,102047.06
2023-03-04T15:30:05.855Z,102036.34
2023-03-04T15:32:31.428Z,102031.88
2023-03-04T15:34:57.061Z,102029.47
2023-03-04T15:37:22.634Z,102027.34
2023-03-04T15:44:49.871Z,102021.91
2023-03-04T15:47:15.410Z,102011.78
2023-03-04T15:49:40.901Z,102028.75
2023-03-04T15:52:06.405Z,102031.38
2023-03-04T15:54:31.933Z,102033.19
2023-03-04T15:56:57.463Z,102032.31
2023-03-04T15:59:22.970Z,102023.94
2023-03-04T16:07:01.043Z,102029.09
2023-03-04T16:09:26.583Z,102025.00
2023-03-04T16:11:52.114Z,102030.59
2023-03-04T16:14:17.646Z,102038.41
2023-03-04T16:16:43.218Z,102038.97
2023-03-04T16:19:08.748Z,102029.53
2023-03-04T16:21:34.234Z,102032.09
2023-03-04T16:31:41.538Z,102020.13
2023-03-04T16:34:07.036Z,102028.78
2023-03-04T16:36:32.594Z,102021.34
2023-03-04T16:38:58.260Z,102021.13
2023-03-04T16:41:23.750Z,102017.97
2023-03-04T16:43:49.247Z,102021.25
2023-03-04T16:46:14.852Z,102022.25
2023-03-04T16:52:07.723Z,102017.38
2023-03-04T16:54:33.233Z,102026.03
2023-03-04T16:56:58.751Z,102024.34
2023-03-04T16:59:24.301Z,102023.59
2023-03-04T17:01:49.963Z,102018.81
2023-03-04T17:04:15.518Z,102025.16
2023-03-04T17:06:41.032Z,102034.19
2023-03-04T17:16:33.960Z,102033.91
2023-03-04T17:18:59.467Z,102031.84
2023-03-04T17:21:25.034Z,102033.63
2023-03-04T17:23:50.592Z,102024.75
2023-03-04T17:26:16.128Z,102027.31
2023-03-04T17:28:41.771Z,102031.00
2023-03-04T17:31:07.325Z,102026.91
2023-03-04T17:33:33.053Z,102024.97
2023-03-04T17:40:59.994Z,102026.69
2023-03-04T17:43:25.489Z,102035.38
2023-03-04T17:45:50.965Z,102032.69
2023-03-04T17:48:16.491Z,102030.66
2023-03-04T17:50:41.996Z,102030.75
2023-03-04T17:53:07.528Z,102027.16
2023-03-04T17:55:33.039Z,102038.75
2023-03-04T17:57:58.612Z,102039.75
2023-03-04T18:05:26.128Z,102038.53
2023-03-04T18:07:51.616Z,102037.75
2023-03-04T18:10:17.160Z,102037.81
2023-03-04T18:12:42.738Z,102035.00
2023-03-04T18:15:08.279Z,102032.16
2023-03-04T18:17:33.775Z,102044.06
2023-03-04T18:19:59.322Z,102035.84
2023-03-04T18:22:24.982Z,102042.31
2023-03-04T18:29:52.484Z,102032.69
2023-03-04T18:32:18.011Z,102023.56
2023-03-04T18:34:43.558Z,102028.66
2023-03-04T18:37:09.071Z,102027.84
2023-03-04T18:39:34.615Z,102020.72
2023-03-04T18:42:00.143Z,102012.13
2023-03-04T18:44:25.735Z,102009.44
2023-03-04T18:49:40.194Z,102015.13
2023-03-04T18:52:05.737Z,102017.75
2023-03-04T18:54:31.305Z,102016.69
2023-03-04T18:56:56.845Z,102018.09
2023-03-04T18:59:22.392Z,102018.84
2023-03-04T19:01:47.916Z,102012.00
2023-03-04T19:04:13.537Z,102012.06
2023-03-04T19:06:39.340Z,102008.41
2023-03-04T19:14:06.322Z,102019.31
2023-03-04T19:16:31.966Z,102015.72
2023-03-04T19:18:57.544Z,102016.75
2023-03-04T19:21:23.059Z,102016.91
2023-03-04T19:23:48.567Z,102012.44
2023-03-04T19:26:14.107Z,102014.94
2023-03-04T19:28:39.648Z,102012.13
2023-03-04T19:33:43.088Z,102008.75
2023-03-04T19:36:08.589Z,102005.88
2023-03-04T19:38:34.111Z,102008.25
2023-03-04T19:40:59.660Z,102000.63
2023-03-04T19:43:25.165Z,102010.69
2023-03-04T19:45:50.700Z,102007.88
2023-03-04T19:48:16.263Z,102013.38
2023-03-04T19:54:23.565Z,102022.88
2023-03-04T19:56:49.138Z,102010.94
2023-03-04T19:59:14.678Z,102015.56
2023-03-04T20:01:40.223Z,102017.28
2023-03-04T20:04:05.779Z,102020.59
2023-03-04T20:06:31.304Z,102020.44
2023-03-04T20:08:56.804Z,102020.53
2023-03-04T20:14:04.916Z,102013.41
2023-03-04T20:16:30.396Z,102016.22
2023-03-04T20:18:55.877Z,102008.25
2023-03-04T20:21:21.396Z,102008.16
2023-03-04T20:23:46.889Z,102012.31
2023-03-04T20:26:12.469Z,102002.56
2023-03-04T20:28:38.026Z,102014.69
2023-03-04T20:38:16.802Z,102008.94
2023-03-04T20:40:42.313Z,102008.09
2023-03-04T20:43:07.806Z,102006.47
2023-03-04T20:45:33.314Z,102005.72
2023-03-04T20:47:58.855Z,101998.81
2023-03-04T20:50:24.350Z,101999.56
2023-03-04T20:52:49.858Z,101996.22
2023-03-04T20:57:58.164Z,101999.56
2023-03-04T21:00:23.671Z,101997.50
2023-03-04T21:02:49.220Z,102005.13
2023-03-04T21:05:14.747Z,101997.31
2023-03-04T21:07:40.288Z,101999.59
2023-03-04T21:10:05.771Z,101999.56
2023-03-04T21:12:31.362Z,101996.88
2023-03-04T21:22:08.384Z,101993.09
2023-03-04T21:24:33.870Z,102004.53
2023-03-04T21:26:59.350Z,102005.19
2023-03-04T21:29:24.896Z,102003.56
2023-03-04T21:31:50.407Z,101988.53
2023-03-04T21:34:15.930Z,101989.41
2023-03-04T21:36:41.521Z,101994.59
2023-03-04T21:41:45.058Z,101988.38
2023-03-04T21:44:18.164Z,101984.63
2023-03-04T21:46:53.889Z,101991.00
2023-03-04T21:49:19.437Z,101979.28
2023-03-04T21:51:44.974Z,101981.13
2023-03-04T21:54:10.469Z,101980.09
2023-03-04T21:56:35.991Z,101983.53
2023-03-04T22:04:03.168Z,101980.84
2023-03-04T22:06:28.657Z,101977.88
2023-03-04T22:08:54.183Z,101977.69
2023-03-04T22:11:19.680Z,101977.75
2023-03-04T22:13:45.162Z,101977.56
2023-03-04T22:16:10.714Z,101966.25
2023-03-04T22:18:36.424Z,101971.66
2023-03-04T22:23:44.590Z,101965.31
2023-03-04T22:26:10.090Z,101962.69
2023-03-04T22:28:35.581Z,101964.38
2023-03-04T22:31:01.081Z,101965.97
2023-03-04T22:33:26.618Z,101967.06
2023-03-04T22:35:52.118Z,101962.53
2023-03-04T22:38:17.624Z,101951.94
2023-03-04T22:40:43.516Z,101949.31
2023-03-04T22:48:10.649Z,101949.59
2023-03-04T22:50:36.125Z,101947.97
2023-03-04T22:53:01.668Z,101950.06
2023-03-04T22:55:27.188Z,101945.28
2023-03-04T22:57:52.735Z,101936.41
2023-03-04T23:00:18.298Z,101940.94
2023-03-04T23:02:43.928Z,101936.16
2023-03-04T23:05:09.725Z,101933.38
2023-03-04T23:12:36.787Z,101926.59
2023-03-04T23:15:02.444Z,101928.28
2023-03-04T23:17:28.050Z,101922.81
2023-03-04T23:19:53.586Z,101928.28
2023-03-04T23:22:19.137Z,101919.66
2023-03-04T23:24:44.628Z,101920.03
2023-03-04T23:27:10.127Z,101928.97
2023-03-04T23:29:35.656Z,101914.78
2023-03-04T23:37:02.855Z,101914.59
2023-03-04T23:39:28.393Z,101918.81
2023-03-04T23:41:53.918Z,101917.88
2023-03-04T23:44:19.494Z,101920.34
2023-03-04T23:46:45.066Z,101913.91
2023-03-04T23:49:10.558Z,101913.22
2023-03-04T23:51:36.081Z,101906.97
2023-03-04T23:54:01.603Z,101902.03
